Time;durP1;ratioP1;P1;durP2;ratioP2;P2;SDS_P1;SDS_P2;PMS_P1;PMS_P2;Temp;Humidity;BMP_temperature;BMP_pressure;BME280_temperature;BME280_humidity;BME280_pressure;Samples;Min_cycle;Max_cycle;Signal;HPM_P1;HPM_P2
2022/10/25 05:02:51;;;;;;;8.13;3.97;;;10.00;99.90;;;;;;5430039;22;19918;-69
2022/10/25 05:05:17;;;;;;;14.90;4.05;;;10.10;99.90;;;;;;5002918;28;20088;-71
2022/10/25 05:07:43;;;;;;;9.52;4.13;;;10.10;99.90;;;;;;5003930;28;20031;-70
2022/10/25 05:10:09;;;;;;;7.10;3.42;;;10.10;99.90;;;;;;5003126;28;20041;-71
2022/10/25 05:12:35;;;;;;;8.93;4.20;;;10.10;99.90;;;;;;5003660;28;20088;-71
2022/10/25 05:15:01;;;;;;;8.18;3.85;;;10.10;99.90;;;;;;4986492;28;20041;-71
2022/10/25 05:17:28;;;;;;;7.88;3.83;;;10.20;99.90;;;;;;5002914;28;20026;-69
2022/10/25 05:19:53;;;;;;;8.80;4.20;;;10.10;99.90;;;;;;4998377;28;20327;-71
2022/10/25 05:22:19;;;;;;;7.95;3.95;;;10.30;99.90;;;;;;5003896;28;20036;-70
2022/10/25 05:24:45;;;;;;;12.25;4.97;;;10.20;99.90;;;;;;5003661;28;20026;-70
2022/10/25 05:27:10;;;;;;;11.80;5.03;;;10.20;99.90;;;;;;5001570;28;20292;-71
2022/10/25 05:29:36;;;;;;;13.18;6.30;;;10.00;99.90;;;;;;5003277;28;20037;-70
2022/10/25 05:32:02;;;;;;;16.05;6.93;;;10.00;99.90;;;;;;5003361;28;20030;-70
2022/10/25 05:34:28;;;;;;;13.23;6.25;;;9.80;99.90;;;;;;4996768;28;20042;-69
2022/10/25 05:36:54;;;;;;;18.35;8.52;;;9.80;99.90;;;;;;5002692;28;20300;-72
2022/10/25 05:39:20;;;;;;;20.33;11.02;;;9.70;99.90;;;;;;5002532;28;20056;-72
2022/10/25 05:41:45;;;;;;;16.38;7.40;;;9.80;99.90;;;;;;5003431;28;20036;-72
2022/10/25 05:44:11;;;;;;;17.02;7.40;;;9.70;99.90;;;;;;5002577;28;20042;-72
2022/10/25 05:46:37;;;;;;;13.15;7.43;;;9.80;99.90;;;;;;5002887;28;20042;-72
2022/10/25 05:49:03;;;;;;;17.33;7.75;;;9.70;99.90;;;;;;5002802;28;20106;-72
2022/10/25 05:51:30;;;;;;;16.48;6.55;;;9.70;99.90;;;;;;4997634;28;20038;-71
2022/10/25 05:53:59;;;;;;;16.48;6.25;;;9.60;99.90;;;;;;5004552;28;20030;-71
2022/10/25 05:56:30;;;;;;;16.40;7.72;;;9.60;99.90;;;;;;4989832;28;20365;-70
2022/10/25 05:58:56;;;;;;;15.82;8.07;;;9.60;99.90;;;;;;5006902;28;20062;-70
2022/10/25 06:01:24;;;;;;;22.38;8.50;;;9.60;99.90;;;;;;5004551;28;20030;-71
2022/10/25 06:03:52;;;;;;;19.23;8.70;;;9.60;99.90;;;;;;5002652;28;20053;-72
2022/10/25 06:06:18;;;;;;;17.95;8.73;;;9.60;99.90;;;;;;4979410;28;20248;-71
2022/10/25 06:08:45;;;;;;;19.42;9.40;;;9.60;99.90;;;;;;5002996;28;20042;-73
2022/10/25 06:11:14;;;;;;;23.60;10.45;;;9.60;99.90;;;;;;5002260;28;20037;-72
2022/10/25 06:13:40;;;;;;;25.80;12.35;;;9.60;99.90;;;;;;5002669;28;20208;-71
2022/10/25 06:16:08;;;;;;;19.98;9.85;;;9.60;99.90;;;;;;5002572;28;20093;-72
2022/10/25 06:18:37;;;;;;;19.88;9.80;;;9.60;99.90;;;;;;5002667;28;20041;-72
2022/10/25 06:21:05;;;;;;;21.60;9.02;;;9.60;99.90;;;;;;4993897;28;20296;-72
2022/10/25 06:23:31;;;;;;;17.55;8.10;;;9.70;99.90;;;;;;5000590;28;20065;-72
2022/10/25 06:26:06;;;;;;;24.45;9.45;;;9.70;99.90;;;;;;5002375;28;20308;-72
2022/10/25 06:28:32;;;;;;;17.90;7.93;;;9.80;99.90;;;;;;5002353;28;20081;-71
2022/10/25 06:31:11;;;;;;;18.13;7.93;;;9.70;99.90;;;;;;4991301;28;20081;-72
2022/10/25 06:33:37;;;;;;;14.95;6.80;;;9.80;99.90;;;;;;4987024;28;20030;-71
2022/10/25 06:36:04;;;;;;;13.05;6.30;;;9.90;99.90;;;;;;5002196;28;20304;-71
2022/10/25 06:38:30;;;;;;;14.00;6.18;;;10.10;99.90;;;;;;4995072;28;20300;-71
2022/10/25 06:41:00;;;;;;;12.52;5.70;;;10.30;99.90;;;;;;5002676;28;20053;-71
2022/10/25 06:43:26;;;;;;;12.40;4.78;;;10.40;99.90;;;;;;5002097;28;20316;-72
2022/10/25 06:45:52;;;;;;;12.50;4.95;;;10.60;99.90;;;;;;5000224;28;20033;-71
2022/10/25 06:48:19;;;;;;;17.40;5.68;;;10.70;99.90;;;;;;5005274;28;20021;-72
2022/10/25 06:50:44;;;;;;;10.90;4.88;;;10.80;99.90;;;;;;5006480;28;20034;-71
2022/10/25 06:53:10;;;;;;;11.02;4.63;;;10.80;99.90;;;;;;4997373;28;20075;-71
2022/10/25 06:55:36;;;;;;;8.93;4.07;;;10.90;99.90;;;;;;4985474;28;20053;-72
2022/10/25 06:58:01;;;;;;;7.80;4.28;;;11.00;99.90;;;;;;4985499;28;20298;-70
2022/10/25 07:00:27;;;;;;;10.85;4.90;;;11.10;99.90;;;;;;4984622;28;20027;-70
2022/10/25 07:02:54;;;;;;;16.85;9.52;;;11.20;99.90;;;;;;4984493;28;20050;-73
2022/10/25 07:05:20;;;;;;;24.40;11.02;;;11.20;99.90;;;;;;5003724;28;20038;-69
2022/10/25 07:07:46;;;;;;;22.58;10.32;;;11.30;99.90;;;;;;4987229;28;20080;-71
2022/10/25 07:10:11;;;;;;;23.73;9.68;;;11.30;99.90;;;;;;5002773;28;20026;-70
2022/10/25 07:12:37;;;;;;;20.70;9.00;;;11.30;99.90;;;;;;5004383;28;20026;-72
2022/10/25 07:15:03;;;;;;;15.52;8.40;;;11.40;99.90;;;;;;4986684;28;20074;-71
2022/10/25 07:17:29;;;;;;;15.82;7.90;;;11.40;99.90;;;;;;5003896;28;20367;-70
2022/10/25 07:19:56;;;;;;;18.30;8.50;;;11.30;99.90;;;;;;5004306;28;20163;-71
2022/10/25 07:22:24;;;;;;;15.80;8.65;;;11.40;99.90;;;;;;4984745;28;20038;-72
2022/10/25 07:24:50;;;;;;;18.63;7.85;;;11.50;99.90;;;;;;4984614;28;20023;-70
2022/10/25 07:27:16;;;;;;;16.45;8.32;;;11.50;99.90;;;;;;4985463;28;20034;-72
2022/10/25 07:29:43;;;;;;;17.42;7.85;;;11.60;99.90;;;;;;5004886;28;20096;-71
2022/10/25 07:32:09;;;;;;;15.82;7.53;;;11.60;99.90;;;;;;5004215;28;20053;-71
2022/10/25 07:34:36;;;;;;;13.55;7.50;;;11.60;99.90;;;;;;5004079;28;20030;-71
2022/10/25 07:37:02;;;;;;;14.55;7.25;;;11.70;99.90;;;;;;5004058;28;20030;-72
2022/10/25 07:39:28;;;;;;;15.23;6.00;;;11.70;99.90;;;;;;5003276;28;20120;-71
2022/10/25 07:41:54;;;;;;;10.68;5.47;;;11.70;99.90;;;;;;5003667;28;20044;-71
2022/10/25 07:44:20;;;;;;;9.93;5.85;;;11.70;99.90;;;;;;5003433;28;20036;-72
2022/10/25 07:46:46;;;;;;;13.30;5.95;;;11.80;99.90;;;;;;5003838;28;20018;-69
2022/10/25 07:49:12;;;;;;;11.55;4.70;;;11.90;99.90;;;;;;5002942;28;20037;-71
2022/10/25 07:51:38;;;;;;;9.20;4.60;;;11.80;99.90;;;;;;5003769;28;20255;-69
2022/10/25 07:54:04;;;;;;;12.18;4.78;;;11.90;99.90;;;;;;5003936;28;20053;-69
2022/10/25 07:56:30;;;;;;;10.25;5.40;;;12.00;99.90;;;;;;5003326;28;20232;-72
2022/10/25 07:58:55;;;;;;;11.05;5.40;;;12.10;99.90;;;;;;5003251;28;20113;-72
2022/10/25 08:01:25;;;;;;;9.63;4.80;;;12.10;99.90;;;;;;5002938;28;20030;-71
2022/10/25 08:03:51;;;;;;;9.10;4.78;;;12.20;99.90;;;;;;5003969;28;20090;-69
2022/10/25 08:06:18;;;;;;;11.98;4.88;;;12.30;99.90;;;;;;5003266;28;20045;-70
2022/10/25 08:08:43;;;;;;;11.55;5.18;;;12.30;99.90;;;;;;5003346;28;20316;-71
2022/10/25 08:11:09;;;;;;;11.50;4.03;;;12.40;99.90;;;;;;5002944;28;20041;-70
2022/10/25 08:13:38;;;;;;;5.82;2.40;;;12.40;99.90;;;;;;5003018;28;20018;-72
2022/10/25 08:16:05;;;;;;;10.18;3.92;;;12.50;99.90;;;;;;5003149;28;20109;-70
2022/10/25 08:18:31;;;;;;;8.48;4.13;;;12.60;99.90;;;;;;5002461;28;20213;-69
2022/10/25 08:20:59;;;;;;;14.55;5.88;;;12.60;99.90;;;;;;5003106;28;20097;-69
2022/10/25 08:23:25;;;;;;;13.18;4.65;;;12.70;99.90;;;;;;5002699;28;20057;-71
2022/10/25 08:25:51;;;;;;;10.00;4.80;;;12.90;99.90;;;;;;4986004;28;20316;-71
2022/10/25 08:28:17;;;;;;;8.98;3.90;;;13.00;99.90;;;;;;5002830;28;20093;-72
2022/10/25 08:30:42;;;;;;;9.75;3.30;;;13.10;99.90;;;;;;5003039;28;20212;-72
2022/10/25 08:33:08;;;;;;;9.02;3.08;;;13.10;99.90;;;;;;5002972;28;20058;-70
2022/10/25 08:35:34;;;;;;;7.97;3.60;;;13.20;99.90;;;;;;5002615;28;20227;-71
2022/10/25 08:38:01;;;;;;;10.85;3.03;;;13.20;99.90;;;;;;5002819;28;20086;-73
2022/10/25 08:41:00;;;;;;;7.50;2.67;;;13.30;99.90;;;;;;5001991;28;20026;-72
2022/10/25 08:44:03;;;;;;;7.40;2.70;;;13.30;99.90;;;;;;4995857;28;20050;-72
2022/10/25 08:46:34;;;;;;;6.57;2.58;;;13.40;99.90;;;;;;5002658;28;20037;-70
2022/10/25 08:49:15;;;;;;;4.80;1.73;;;13.30;99.90;;;;;;5002442;28;20227;-71
2022/10/25 08:51:46;;;;;;;5.13;2.65;;;13.20;99.90;;;;;;5002879;28;20038;-71
2022/10/25 08:54:31;;;;;;;7.32;1.65;;;13.30;99.90;;;;;;5002885;28;20097;-69
2022/10/25 08:57:12;;;;;;;6.03;1.25;;;13.30;99.90;;;;;;5002923;28;20268;-70
2022/10/25 08:59:41;;;;;;;3.70;1.08;;;13.50;99.90;;;;;;5002548;28;20023;-70
2022/10/25 09:02:18;;;;;;;5.25;1.08;;;13.50;99.90;;;;;;5002474;28;20049;-71
2022/10/25 09:04:43;;;;;;;5.60;1.15;;;13.70;99.90;;;;;;5002864;28;20265;-71
2022/10/25 09:07:31;;;;;;;3.95;0.95;;;13.60;99.90;;;;;;5002482;28;20018;-69
2022/10/25 09:10:41;;;;;;;2.45;0.98;;;13.70;99.90;;;;;;5001516;28;20022;-72
2022/10/25 09:13:14;;;;;;;3.83;0.80;;;13.70;99.90;;;;;;4942178;29;20040;-71
2022/10/25 09:16:12;;;;;;;5.78;1.35;;;13.80;99.90;;;;;;4926574;29;20055;-72
2022/10/25 09:18:46;;;;;;;5.43;1.00;;;13.90;99.90;;;;;;4979221;28;20118;-69
2022/10/25 09:21:49;;;;;;;4.63;1.10;;;14.00;99.90;;;;;;5003370;28;20030;-69
2022/10/25 09:24:35;;;;;;;4.95;1.17;;;14.10;99.90;;;;;;4999580;28;20085;-71
2022/10/25 09:27:05;;;;;;;4.82;1.55;;;14.20;99.90;;;;;;5001999;28;20088;-70
2022/10/25 09:29:43;;;;;;;7.13;1.85;;;14.20;99.90;;;;;;5001418;28;20030;-72
2022/10/25 09:32:22;;;;;;;7.18;2.03;;;14.40;99.90;;;;;;5002047;28;20041;-70
2022/10/25 09:34:48;;;;;;;5.55;2.08;;;14.50;99.90;;;;;;5001820;28;20040;-71
2022/10/25 09:37:24;;;;;;;9.30;2.17;;;14.50;99.90;;;;;;5001473;28;20128;-71
2022/10/25 09:39:59;;;;;;;4.15;1.35;;;14.50;99.90;;;;;;5001846;28;20220;-72
2022/10/25 09:42:31;;;;;;;9.15;2.13;;;14.40;99.90;;;;;;5001195;28;20288;-71
2022/10/25 09:45:03;;;;;;;6.07;1.65;;;14.50;99.90;;;;;;5001792;28;20199;-71
2022/10/25 09:47:29;;;;;;;8.48;1.95;;;14.80;99.90;;;;;;5001557;28;20033;-74
2022/10/25 09:50:05;;;;;;;6.63;2.20;;;14.90;99.90;;;;;;5001384;28;20022;-72
2022/10/25 09:52:39;;;;;;;7.72;2.50;;;15.10;99.90;;;;;;5001344;28;20079;-71
2022/10/25 09:55:14;;;;;;;7.85;2.28;;;15.30;99.90;;;;;;5001625;28;20224;-71
2022/10/25 09:57:41;;;;;;;7.13;1.60;;;15.40;99.90;;;;;;5001846;28;20034;-71
2022/10/25 10:00:11;;;;;;;7.22;1.83;;;15.60;99.90;;;;;;4984219;28;20101;-71
2022/10/25 10:02:40;;;;;;;7.82;2.20;;;15.80;99.90;;;;;;5000966;28;20049;-72
2022/10/25 10:05:14;;;;;;;7.07;1.83;;;15.90;99.90;;;;;;5001361;28;20048;-72
2022/10/25 10:07:40;;;;;;;8.27;1.40;;;16.00;99.90;;;;;;5001024;28;20252;-72
2022/10/25 10:10:31;;;;;;;6.53;1.25;;;16.20;99.90;;;;;;5001221;28;20034;-74
2022/10/25 10:13:21;;;;;;;4.72;1.00;;;16.40;99.90;;;;;;5001282;28;20026;-71
2022/10/25 10:15:56;;;;;;;4.55;1.02;;;16.60;99.90;;;;;;5001200;28;20030;-72
2022/10/25 10:18:28;;;;;;;4.75;0.80;;;16.80;99.90;;;;;;5001218;28;20323;-73
2022/10/25 10:20:56;;;;;;;3.78;0.70;;;16.80;99.90;;;;;;5000868;28;20026;-71
2022/10/25 10:23:22;;;;;;;;;;;17.00;99.90;;;;;;5000927;28;20396;-77
2022/10/25 10:25:48;;;;;;;7.35;0.90;;;17.20;99.90;;;;;;5001323;28;19910;-71
2022/10/25 10:28:14;;;;;;;2.88;0.70;;;17.40;99.90;;;;;;5000356;28;20371;-70
2022/10/25 10:30:41;;;;;;;4.45;1.30;;;17.50;99.90;;;;;;5001313;28;20045;-70
2022/10/25 10:33:15;;;;;;;3.83;0.90;;;17.70;99.90;;;;;;5001138;28;20045;-69
2022/10/25 10:35:40;;;;;;;5.22;0.75;;;17.90;99.90;;;;;;5000905;28;20030;-77
2022/10/25 10:38:26;;;;;;;3.08;0.60;;;18.10;99.90;;;;;;4979930;28;20073;-73
2022/10/25 10:41:12;;;;;;;4.00;1.00;;;18.20;99.90;;;;;;4989729;28;20026;-71
2022/10/25 10:43:38;;;;;;;3.95;0.77;;;18.60;99.90;;;;;;5001043;28;20038;-70
2022/10/25 10:46:08;;;;;;;4.95;1.10;;;18.90;99.90;;;;;;5001169;28;20030;-73
2022/10/25 10:48:42;;;;;;;5.57;1.00;;;19.20;99.90;;;;;;5000259;28;20077;-72
2022/10/25 10:51:12;;;;;;;4.22;0.93;;;19.50;99.90;;;;;;5001111;28;20038;-69
2022/10/25 10:53:38;;;;;;;3.30;0.60;;;19.90;99.90;;;;;;4999742;28;20204;-71
2022/10/25 10:56:05;;;;;;;3.78;0.80;;;20.60;99.90;;;;;;5000578;28;20101;-72
2022/10/25 10:58:38;;;;;;;3.67;0.57;;;21.00;99.40;;;;;;5000582;28;20040;-70
2022/10/25 11:01:11;;;;;;;4.28;0.68;;;21.60;97.20;;;;;;5000769;28;20042;-71
2022/10/25 11:03:50;;;;;;;3.53;0.75;;;21.60;96.50;;;;;;5000199;28;20081;-72
2022/10/25 11:06:32;;;;;;;2.25;0.40;;;22.00;96.40;;;;;;4983805;28;20097;-76
2022/10/25 11:09:19;;;;;;;3.08;0.65;;;22.70;95.20;;;;;;5000805;28;20089;-72
2022/10/25 11:12:03;;;;;;;1.70;0.50;;;23.50;93.70;;;;;;4981351;28;20033;-72
2022/10/25 11:14:29;;;;;;;3.35;0.50;;;24.50;92.70;;;;;;4981820;28;20058;-71
2022/10/25 11:17:17;;;;;;;3.60;0.60;;;24.90;90.90;;;;;;4982501;28;20208;-72
2022/10/25 11:20:17;;;;;;;2.40;0.60;;;25.40;89.30;;;;;;4981457;28;20050;-70
2022/10/25 11:22:57;;;;;;;2.92;0.70;;;25.90;86.00;;;;;;4981028;28;20046;-70
2022/10/25 11:25:32;;;;;;;3.65;0.60;;;26.20;83.10;;;;;;4981231;28;20327;-72
2022/10/25 11:28:05;;;;;;;2.58;0.50;;;26.60;80.30;;;;;;4980969;28;20035;-72
2022/10/25 11:30:43;;;;;;;2.30;0.60;;;26.20;80.20;;;;;;4980944;28;20027;-71
2022/10/25 11:33:20;;;;;;;3.00;0.60;;;26.00;81.30;;;;;;4981988;28;20177;-70
2022/10/25 11:36:13;;;;;;;3.03;0.60;;;25.80;79.30;;;;;;4984586;28;20125;-72
2022/10/25 11:38:44;;;;;;;3.17;0.57;;;26.30;80.10;;;;;;4996502;28;20050;-72
2022/10/25 11:41:36;;;;;;;6.13;0.75;;;27.00;76.80;;;;;;5003946;28;20128;-71
2022/10/25 11:44:24;;;;;;;2.53;0.40;;;26.80;76.00;;;;;;5004094;28;20046;-70
2022/10/25 11:47:19;;;;;;;2.65;0.40;;;26.00;77.20;;;;;;4986553;28;20057;-70
2022/10/25 11:49:55;;;;;;;6.65;0.63;;;26.20;77.80;;;;;;5003946;28;20034;-69
2022/10/25 11:52:37;;;;;;;3.22;0.95;;;26.60;75.90;;;;;;5003752;28;20023;-69
2022/10/25 11:55:34;;;;;;;1.50;0.30;;;27.90;74.70;;;;;;5003827;28;20376;-70
2022/10/25 11:58:19;;;;;;;1.47;0.40;;;29.00;71.50;;;;;;4970047;28;20065;-72
2022/10/25 12:00:54;;;;;;;2.97;0.63;;;29.40;71.40;;;;;;5003894;28;20034;-73
2022/10/25 12:03:35;;;;;;;3.13;0.52;;;29.60;69.60;;;;;;5003437;28;20097;-72
2022/10/25 12:06:44;;;;;;;2.92;0.55;;;31.10;67.40;;;;;;5004286;28;20080;-72
2022/10/25 12:09:33;;;;;;;3.00;0.40;;;31.80;66.60;;;;;;4957516;28;20049;-73
2022/10/25 12:12:03;;;;;;;8.40;0.70;;;31.60;62.80;;;;;;5003931;28;20312;-73
2022/10/25 12:14:41;;;;;;;2.78;0.40;;;31.80;63.70;;;;;;5003147;28;20045;-71
2022/10/25 12:17:24;;;;;;;3.35;0.60;;;31.10;61.80;;;;;;5003482;28;20052;-72
2022/10/25 12:19:54;;;;;;;4.32;0.75;;;30.80;62.30;;;;;;5003528;28;20045;-71
2022/10/25 12:22:42;;;;;;;2.42;0.50;;;29.50;62.30;;;;;;5002802;28;20034;-72
2022/10/25 12:25:24;;;;;;;2.40;0.57;;;29.30;65.00;;;;;;5003383;28;20026;-74
2022/10/25 12:28:03;;;;;;;1.73;0.40;;;31.00;62.20;;;;;;5003350;28;20105;-72
2022/10/25 12:30:30;;;;;;;3.70;0.60;;;31.90;63.20;;;;;;5002941;28;20304;-72
2022/10/25 12:33:02;;;;;;;4.15;0.80;;;32.40;63.40;;;;;;5003176;28;20026;-73
2022/10/25 12:35:34;;;;;;;4.90;0.80;;;33.40;62.40;;;;;;5002586;28;20026;-69
2022/10/25 12:38:05;;;;;;;3.20;0.77;;;33.90;61.10;;;;;;5002902;28;20220;-69
2022/10/25 12:40:37;;;;;;;4.18;0.80;;;33.80;61.20;;;;;;5001461;28;20058;-72
2022/10/25 12:43:38;;;;;;;2.72;0.60;;;33.70;60.00;;;;;;4985431;28;20050;-71
2022/10/25 12:46:17;;;;;;;3.40;0.93;;;34.00;59.60;;;;;;4953382;28;20035;-72
2022/10/25 12:49:08;;;;;;;3.58;0.90;;;33.70;60.50;;;;;;4987456;28;20122;-73
2022/10/25 12:51:55;;;;;;;3.13;0.80;;;33.90;59.30;;;;;;5002425;28;20089;-71
2022/10/25 12:54:46;;;;;;;4.72;0.85;;;33.80;59.50;;;;;;4997300;28;20312;-70
2022/10/25 12:57:50;;;;;;;3.70;0.90;;;31.90;60.70;;;;;;4986515;28;20189;-71
2022/10/25 13:00:21;;;;;;;4.40;0.93;;;29.80;64.00;;;;;;5001933;28;20038;-71
2022/10/25 13:03:23;;;;;;;5.25;1.10;;;28.40;67.30;;;;;;5002255;28;20367;-71
2022/10/25 13:05:55;;;;;;;4.82;1.25;;;27.40;69.10;;;;;;5003056;28;20022;-71
2022/10/25 13:08:23;;;;;;;4.70;1.10;;;26.30;72.30;;;;;;5001941;28;20066;-71
2022/10/25 13:10:55;;;;;;;;;;;26.30;73.20;;;;;;5002789;28;20045;-70
2022/10/25 13:13:24;;;;;;;4.03;0.85;;;28.30;69.30;;;;;;5001921;28;19941;-71
2022/10/25 13:15:54;;;;;;;3.60;0.73;;;28.90;66.70;;;;;;5002255;28;20084;-70
2022/10/25 13:18:41;;;;;;;3.35;0.80;;;28.00;67.80;;;;;;5001652;28;20024;-73
2022/10/25 13:21:09;;;;;;;4.25;0.90;;;26.90;69.90;;;;;;5002027;28;20085;-72
2022/10/25 13:23:50;;;;;;;5.28;0.77;;;26.30;72.10;;;;;;5001561;28;20038;-72
2022/10/25 13:26:19;;;;;;;4.00;0.80;;;25.60;72.60;;;;;;5001575;28;20093;-72
2022/10/25 13:28:50;;;;;;;4.28;0.60;;;25.10;75.90;;;;;;5002019;28;20022;-69
2022/10/25 13:31:33;;;;;;;4.45;0.80;;;24.60;75.40;;;;;;5001280;28;20026;-71
2022/10/25 13:34:11;;;;;;;3.85;1.23;;;24.10;77.40;;;;;;5002241;28;20049;-71
2022/10/25 13:36:52;;;;;;;3.17;0.63;;;23.60;78.70;;;;;;5001100;28;20304;-69
2022/10/25 13:39:29;;;;;;;5.18;1.00;;;23.90;79.70;;;;;;5001012;28;20060;-71
2022/10/25 13:42:08;;;;;;;3.60;1.02;;;24.90;76.80;;;;;;5001537;28;20084;-70
2022/10/25 13:44:35;;;;;;;;;;;25.90;74.50;;;;;;5001848;28;20231;-70
2022/10/25 13:47:01;;;;;;;4.93;1.20;;;26.30;72.50;;;;;;5001877;28;19910;-69
2022/10/25 13:49:30;;;;;;;4.15;0.93;;;26.50;72.60;;;;;;5001446;28;20976;-69
2022/10/25 13:51:59;;;;;;;4.65;0.70;;;27.00;71.30;;;;;;5001697;28;20034;-69
2022/10/25 13:54:45;;;;;;;5.60;0.85;;;27.00;71.40;;;;;;4983877;28;20090;-70
2022/10/25 13:57:49;;;;;;;7.38;1.40;;;26.70;71.90;;;;;;5001420;28;20033;-69
2022/10/25 14:00:37;;;;;;;4.53;1.00;;;26.50;72.10;;;;;;4983859;28;20042;-69
2022/10/25 14:03:09;;;;;;;4.18;1.58;;;27.40;70.30;;;;;;5001107;28;20073;-69
2022/10/25 14:05:53;;;;;;;3.10;0.93;;;28.10;68.80;;;;;;5000703;28;20058;-70
2022/10/25 14:08:47;;;;;;;3.65;1.02;;;28.30;67.90;;;;;;5000937;28;20034;-70
2022/10/25 14:11:18;;;;;;;3.90;1.10;;;28.30;69.40;;;;;;5000735;28;20026;-71
2022/10/25 14:14:11;;;;;;;4.30;1.88;;;28.60;69.10;;;;;;5001271;28;20022;-70
2022/10/25 14:17:13;;;;;;;5.47;1.48;;;28.40;68.60;;;;;;5001015;28;20034;-70
2022/10/25 14:19:46;;;;;;;6.13;0.90;;;27.90;68.70;;;;;;5001462;28;20029;-71
2022/10/25 14:22:16;;;;;;;2.80;0.80;;;28.30;68.50;;;;;;4966057;28;20034;-69
2022/10/25 14:24:44;;;;;;;5.25;1.10;;;28.50;68.50;;;;;;4981799;28;20053;-71
2022/10/25 14:27:35;;;;;;;2.95;0.90;;;28.30;68.40;;;;;;4982035;28;20038;-69
2022/10/25 14:30:21;;;;;;;4.15;1.20;;;27.30;70.00;;;;;;4980549;28;20264;-71
2022/10/25 14:32:59;;;;;;;2.97;0.80;;;26.30;71.80;;;;;;4981720;28;20362;-69
2022/10/25 14:35:43;;;;;;;3.35;1.00;;;25.60;73.40;;;;;;4981592;28;20030;-70
2022/10/25 14:38:19;;;;;;;12.98;2.20;;;25.40;74.70;;;;;;4990212;28;20022;-69
2022/10/25 14:41:00;;;;;;;9.77;2.22;;;25.10;76.50;;;;;;5000652;28;20053;-70
2022/10/25 14:43:33;;;;;;;7.28;1.70;;;24.90;76.00;;;;;;5000458;28;20030;-71
2022/10/25 14:45:59;;;;;;;3.67;1.05;;;;;;;;;;4968703;28;20039;-71
2022/10/25 14:48:25;;;;;;;4.95;1.02;;;24.60;76.60;;;;;;4992015;28;20057;-72
2022/10/25 14:50:52;;;;;;;4.53;1.10;;;24.50;77.00;;;;;;5001139;28;20022;-68
2022/10/25 14:53:18;;;;;;;6.30;1.33;;;24.60;77.80;;;;;;5000635;28;20077;-71
2022/10/25 14:56:00;;;;;;;3.72;1.60;;;24.60;78.30;;;;;;5001366;28;20400;-70
2022/10/25 14:58:31;;;;;;;5.22;1.45;;;24.50;76.80;;;;;;5000602;28;20031;-70
2022/10/25 15:01:01;;;;;;;14.13;2.10;;;24.60;76.60;;;;;;5000772;28;20054;-70
2022/10/25 15:03:28;;;;;;;5.10;2.55;;;24.60;77.60;;;;;;4999665;28;20074;-70
2022/10/25 15:05:56;;;;;;;8.45;4.65;;;24.70;76.50;;;;;;5001223;28;20030;-69
2022/10/25 15:08:26;;;;;;;5.53;2.30;;;24.60;76.50;;;;;;5002497;28;20030;-69
2022/10/25 15:11:01;;;;;;;5.72;3.28;;;24.70;80.30;;;;;;5004669;28;20038;-70
2022/10/25 15:13:40;;;;;;;11.98;8.50;;;24.50;76.40;;;;;;5004347;28;20038;-69
2022/10/25 15:16:29;;;;;;;5.07;1.77;;;24.40;77.00;;;;;;5004788;28;20363;-70
2022/10/25 15:19:04;;;;;;;8.65;2.30;;;24.00;78.40;;;;;;5004409;28;20101;-69
2022/10/25 15:21:45;;;;;;;8.30;2.97;;;23.60;78.90;;;;;;5003169;28;20329;-68
2022/10/25 15:24:19;;;;;;;11.90;6.28;;;23.20;83.00;;;;;;5004226;28;20054;-69
2022/10/25 15:26:59;;;;;;;11.13;4.75;;;23.10;81.50;;;;;;4987001;28;20106;-71
2022/10/25 15:29:45;;;;;;;5.15;2.03;;;23.10;80.70;;;;;;5003711;28;20026;-69
2022/10/25 15:32:17;;;;;;;8.18;3.00;;;23.30;80.20;;;;;;5004377;28;20046;-70
2022/10/25 15:34:46;;;;;;;7.82;2.92;;;23.20;84.80;;;;;;5004245;28;20026;-70
2022/10/25 15:37:14;;;;;;;4.18;1.48;;;22.90;81.10;;;;;;5005012;28;20089;-70
2022/10/25 15:39:40;;;;;;;6.03;1.80;;;22.50;82.40;;;;;;5003940;28;20358;-71
2022/10/25 15:42:06;;;;;;;4.75;1.20;;;22.10;87.00;;;;;;5003665;28;20110;-71
2022/10/25 15:44:32;;;;;;;4.05;1.35;;;21.80;86.30;;;;;;5003733;28;20312;-72
2022/10/25 15:46:57;;;;;;;8.45;4.63;;;21.30;88.20;;;;;;5003696;28;20034;-68
2022/10/25 15:49:23;;;;;;;5.97;2.03;;;21.00;90.30;;;;;;5003344;28;20018;-70
2022/10/25 15:51:49;;;;;;;7.93;2.80;;;20.80;90.90;;;;;;5003833;28;20335;-70
2022/10/25 15:54:17;;;;;;;6.63;1.92;;;20.60;91.90;;;;;;5003371;28;20094;-71
2022/10/25 15:56:44;;;;;;;6.88;2.83;;;20.40;92.10;;;;;;5003607;28;20407;-69
2022/10/25 15:59:10;;;;;;;5.07;1.73;;;20.20;91.20;;;;;;5003801;28;20331;-70
2022/10/25 16:01:39;;;;;;;5.95;1.83;;;20.00;92.80;;;;;;5002647;28;20093;-69
2022/10/25 16:04:05;;;;;;;6.60;2.22;;;19.90;93.40;;;;;;5003963;28;20041;-70
2022/10/25 16:06:31;;;;;;;6.95;2.03;;;19.70;93.60;;;;;;5003206;28;20053;-70
2022/10/25 16:08:57;;;;;;;6.15;2.25;;;19.60;94.10;;;;;;4985917;28;20072;-70
2022/10/25 16:11:22;;;;;;;6.60;2.70;;;19.30;93.40;;;;;;5002701;28;20050;-71
2022/10/25 16:13:51;;;;;;;7.35;2.63;;;18.90;94.40;;;;;;5003643;28;20029;-70
2022/10/25 16:16:28;;;;;;;7.50;2.47;;;18.70;95.40;;;;;;5003264;28;20034;-71
2022/10/25 16:18:54;;;;;;;9.15;4.00;;;18.50;95.90;;;;;;5002846;28;20196;-71
2022/10/25 16:21:20;;;;;;;10.55;3.83;;;18.20;96.70;;;;;;5002293;28;20038;-70
2022/10/25 16:23:47;;;;;;;6.65;3.00;;;18.00;97.60;;;;;;5003263;28;20098;-70
2022/10/25 16:26:33;;;;;;;9.23;2.78;;;17.70;99.20;;;;;;5002592;28;20045;-69
2022/10/25 16:28:59;;;;;;;8.60;2.80;;;17.50;99.90;;;;;;5003318;28;20061;-68
2022/10/25 16:31:25;;;;;;;7.53;2.28;;;17.40;99.90;;;;;;5002242;28;20045;-70
2022/10/25 16:33:50;;;;;;;5.68;2.03;;;17.30;99.90;;;;;;5003487;28;20243;-69
2022/10/25 16:36:16;;;;;;;5.72;2.20;;;17.20;99.90;;;;;;5002771;28;20022;-68
2022/10/25 16:38:42;;;;;;;8.07;2.60;;;17.00;99.90;;;;;;5003013;28;20037;-70
2022/10/25 16:41:36;;;;;;;6.13;2.30;;;16.80;99.90;;;;;;4985432;28;20034;-71
2022/10/25 16:44:01;;;;;;;7.75;2.00;;;16.60;99.90;;;;;;4985981;28;20045;-71
2022/10/25 16:46:27;;;;;;;8.50;2.33;;;16.50;99.90;;;;;;5002493;28;20256;-68
2022/10/25 16:48:53;;;;;;;7.13;2.80;;;16.50;99.90;;;;;;4985298;28;20048;-70
2022/10/25 16:51:19;;;;;;;7.50;2.60;;;16.40;99.90;;;;;;5002066;28;20047;-70
2022/10/25 16:53:46;;;;;;;14.90;6.78;;;16.30;99.90;;;;;;5002432;28;20094;-70
2022/10/25 16:56:12;;;;;;;7.55;3.17;;;16.20;99.90;;;;;;4985128;28;20080;-69
2022/10/25 16:58:38;;;;;;;7.35;2.92;;;16.10;99.90;;;;;;5002548;28;20065;-70
2022/10/25 17:01:25;;;;;;;8.02;2.92;;;16.10;99.90;;;;;;5001991;28;20038;-70
2022/10/25 17:03:51;;;;;;;7.65;3.03;;;15.90;99.90;;;;;;5002122;28;20047;-70
2022/10/25 17:06:18;;;;;;;6.93;3.25;;;15.80;99.90;;;;;;5001792;28;20319;-70
2022/10/25 17:08:44;;;;;;;9.65;3.00;;;15.70;99.90;;;;;;4984281;28;20125;-70
2022/10/25 17:11:11;;;;;;;8.13;3.47;;;15.50;99.90;;;;;;5001771;28;20041;-69
2022/10/25 17:13:37;;;;;;;10.73;4.20;;;15.40;99.90;;;;;;5001467;28;20313;-69
2022/10/25 17:16:11;;;;;;;12.63;5.45;;;15.40;99.90;;;;;;5002355;28;20026;-70
2022/10/25 17:18:37;;;;;;;10.98;3.70;;;15.20;99.90;;;;;;5001582;28;20327;-69
2022/10/25 17:21:09;;;;;;;9.82;3.67;;;15.20;99.90;;;;;;5001930;28;20082;-69
2022/10/25 17:23:35;;;;;;;8.07;3.10;;;15.00;99.90;;;;;;5001558;28;20044;-71
2022/10/25 17:26:03;;;;;;;7.53;2.10;;;15.00;99.90;;;;;;4984513;28;20351;-69
2022/10/25 17:28:29;;;;;;;12.85;5.00;;;15.00;99.90;;;;;;5001599;28;20362;-70
2022/10/25 17:30:55;;;;;;;7.78;4.00;;;14.90;99.90;;;;;;5000781;28;20033;-70
2022/10/25 17:33:21;;;;;;;7.05;3.40;;;14.90;99.90;;;;;;5001908;28;20439;-68
2022/10/25 17:35:47;;;;;;;10.38;3.55;;;14.90;99.90;;;;;;5001906;28;20033;-70
2022/10/25 17:38:13;;;;;;;4.60;2.33;;;15.00;99.90;;;;;;4992978;28;20037;-71
2022/10/25 17:40:43;;;;;;;6.47;2.85;;;15.00;99.90;;;;;;4981555;28;20030;-68
2022/10/25 17:43:12;;;;;;;11.05;4.68;;;14.80;99.90;;;;;;4965043;28;20058;-69
2022/10/25 17:45:38;;;;;;;;;;;14.80;99.90;;;;;;4981945;28;20102;-69
2022/10/25 17:48:05;;;;;;;8.48;3.55;;;14.70;99.90;;;;;;4964970;28;19913;-70
2022/10/25 17:50:30;;;;;;;12.98;6.35;;;14.50;99.90;;;;;;4981893;28;20035;-70
2022/10/25 17:52:56;;;;;;;9.88;4.32;;;14.60;99.90;;;;;;4982199;28;20050;-70
2022/10/25 17:55:22;;;;;;;11.88;5.18;;;14.50;99.90;;;;;;4964656;28;20054;-71
2022/10/25 17:57:48;;;;;;;14.48;5.57;;;14.40;99.90;;;;;;4982079;28;20031;-69
2022/10/25 18:00:14;;;;;;;12.98;3.97;;;14.40;99.90;;;;;;4982341;28;20054;-69
2022/10/25 18:02:42;;;;;;;12.73;5.68;;;14.30;99.90;;;;;;4982084;28;20291;-69
2022/10/25 18:05:10;;;;;;;8.55;4.30;;;14.30;99.90;;;;;;4982054;28;20019;-69
2022/10/25 18:07:36;;;;;;;10.57;4.80;;;14.30;99.90;;;;;;4981629;28;20145;-70
2022/10/25 18:10:03;;;;;;;8.43;4.43;;;14.20;99.90;;;;;;4990435;28;20073;-71
2022/10/25 18:12:30;;;;;;;9.85;4.00;;;14.20;99.90;;;;;;5000971;28;20224;-70
2022/10/25 18:14:56;;;;;;;11.75;4.50;;;14.10;99.90;;;;;;5001677;28;20319;-70